createdAt,value
2017-02-27T00:00:28.261Z,20.1
2017-02-27T00:01:42.022Z,20.1
2017-02-27T00:02:56.416Z,20.11
2017-02-27T00:04:10.856Z,20.2
2017-02-27T00:05:25.242Z,20.28
2017-02-27T00:06:38.990Z,20.5
2017-02-27T00:07:53.416Z,20.52
2017-02-27T00:09:07.820Z,20.58
2017-02-27T00:10:22.234Z,20.5
2017-02-27T00:11:35.997Z,20.55
2017-02-27T00:12:49.744Z,20.7
2017-02-27T00:14:03.475Z,20.62
2017-02-27T00:15:17.893Z,20.62
2017-02-27T00:16:32.354Z,20.67
2017-02-27T00:17:46.798Z,20.62
2017-02-27T00:19:00.556Z,20.67
2017-02-27T00:20:14.948Z,20.67
2017-02-27T00:21:29.366Z,20.41
2017-02-27T00:22:43.773Z,20.42
2017-02-27T00:23:58.169Z,20.47
2017-02-27T00:25:11.913Z,20.47
2017-02-27T00:26:26.294Z,20.38
2017-02-27T00:27:40.663Z,20.31
2017-02-27T00:28:54.438Z,20.26
2017-02-27T00:30:08.816Z,20.29
2017-02-27T00:31:22.623Z,20.18
2017-02-27T00:32:36.398Z,20.2
2017-02-27T00:33:50.156Z,20.16
2017-02-27T00:35:04.524Z,20.17
2017-02-27T00:36:18.938Z,20.17
2017-02-27T00:37:33.358Z,20.16
2017-02-27T00:38:47.121Z,20.21
2017-02-27T00:40:01.509Z,20.29
2017-02-27T00:41:15.899Z,20.29
2017-02-27T00:42:29.031Z,20.31
2017-02-27T00:43:42.822Z,20.31
2017-02-27T00:44:55.906Z,20.31
2017-02-27T00:46:10.293Z,20.36
2017-02-27T00:47:24.745Z,20.31
2017-02-27T00:48:39.132Z,20.31
2017-02-27T00:49:53.551Z,20.28
2017-02-27T00:51:07.984Z,20.31
2017-02-27T00:52:22.357Z,20.31
2017-02-27T00:53:36.783Z,20.28
2017-02-27T00:54:50.551Z,20.26
2017-02-27T00:56:04.970Z,20.26
2017-02-27T00:57:19.376Z,20.23
2017-02-27T00:58:33.101Z,20.24
2017-02-27T00:59:46.218Z,20.28
2017-02-27T01:01:00.616Z,20.26
2017-02-27T01:02:15.013Z,20.28
2017-02-27T01:03:28.736Z,20.18
2017-02-27T01:04:43.094Z,20.16
2017-02-27T01:05:57.509Z,20.23
2017-02-27T01:07:11.927Z,20.21
2017-02-27T01:08:26.348Z,20.1
2017-02-27T01:09:40.115Z,20.18
2017-02-27T01:10:54.483Z,20.21
2017-02-27T01:12:08.872Z,20.06
2017-02-27T01:13:22.665Z,20.11
2017-02-27T01:14:36.411Z,20.18
2017-02-27T01:15:50.134Z,20.06
2017-02-27T01:17:03.900Z,20.14
2017-02-27T01:18:17.705Z,20.21
2017-02-27T01:19:32.097Z,20.31
2017-02-27T01:20:45.828Z,20.28
2017-02-27T01:21:59.577Z,20.32
2017-02-27T01:23:14.004Z,20.28
2017-02-27T01:24:28.404Z,20.29
2017-02-27T01:25:42.173Z,20.29
2017-02-27T01:26:56.584Z,20.26
2017-02-27T01:28:10.968Z,20.26
2017-02-27T01:29:25.330Z,20.28
2017-02-27T01:30:39.742Z,20.28
2017-02-27T01:31:54.092Z,20.21
2017-02-27T01:33:08.497Z,20.32
2017-02-27T01:34:22.921Z,20.23
2017-02-27T01:38:19.601Z,20.08
2017-02-27T01:53:03.291Z,19.99
2017-02-27T01:54:17.076Z,20.01
2017-02-27T01:55:31.428Z,20.03
2017-02-27T01:56:45.165Z,19.95
2017-02-27T01:57:59.586Z,19.96
2017-02-27T01:59:13.332Z,19.98
2017-02-27T02:00:27.723Z,20.02
2017-02-27T02:01:41.502Z,20.05
2017-02-27T02:02:55.893Z,19.99
2017-02-27T02:04:09.617Z,20.02
2017-02-27T02:05:24.032Z,20.05
2017-02-27T02:06:38.499Z,20.06
2017-02-27T02:07:52.942Z,19.94
2017-02-27T02:09:07.305Z,20.08
2017-02-27T02:10:20.421Z,20.06
2017-02-27T02:11:33.560Z,20.01
2017-02-27T02:12:47.911Z,20.08
2017-02-27T02:14:02.286Z,20.06
2017-02-27T02:15:16.034Z,20.11
2017-02-27T02:16:30.425Z,20.18
2017-02-27T02:17:44.834Z,20.2
2017-02-27T02:18:59.276Z,20.08
2017-02-27T02:20:13.643Z,20.06
2017-02-27T02:21:28.017Z,20.14
2017-02-27T02:22:42.390Z,20.08
2017-02-27T02:23:56.185Z,20.05
2017-02-27T02:25:10.609Z,20.1
2017-02-27T02:26:25.002Z,20.08
2017-02-27T02:27:39.407Z,20.14
2017-02-27T02:28:53.812Z,20.18
2017-02-27T02:30:07.646Z,20.2
2017-02-27T02:31:22.013Z,20.08
2017-02-27T02:32:35.133Z,20.06
2017-02-27T02:33:49.520Z,20.21
2017-02-27T02:35:03.953Z,20.2
2017-02-27T02:36:17.723Z,20.2
2017-02-27T02:37:32.131Z,20.23
2017-02-27T02:38:45.851Z,20.17
2017-02-27T02:39:59.566Z,20.17
2017-02-27T02:41:13.277Z,20.24
2017-02-27T02:42:27.693Z,20.2
2017-02-27T02:43:42.074Z,20.23
2017-02-27T02:44:56.456Z,20.14
2017-02-27T02:46:10.877Z,20.13
2017-02-27T02:47:25.270Z,20.21
2017-02-27T02:48:39.716Z,20.17
2017-02-27T02:49:54.088Z,20.21
2017-02-27T02:51:08.488Z,20.2
2017-02-27T02:52:22.870Z,20.18
2017-02-27T02:53:36.608Z,20.26
2017-02-27T02:54:51.029Z,20.14
2017-02-27T02:56:05.426Z,20.26
2017-02-27T02:57:19.804Z,20.2
2017-02-27T02:58:34.178Z,20.31
2017-02-27T02:59:48.585Z,20.31
2017-02-27T03:01:02.988Z,20.26
2017-02-27T03:02:17.381Z,20.26
2017-02-27T03:03:31.123Z,20.24
2017-02-27T03:04:45.511Z,20.31
2017-02-27T03:05:59.906Z,20.21
2017-02-27T03:07:14.305Z,20.18
2017-02-27T03:08:28.037Z,20.29
2017-02-27T03:09:42.421Z,20.28
2017-02-27T03:10:55.534Z,20.28
2017-02-27T03:12:09.282Z,20.33
2017-02-27T03:13:23.031Z,20.26
2017-02-27T03:14:36.765Z,20.36
2017-02-27T03:15:50.472Z,20.48
2017-02-27T03:17:04.843Z,20.47
2017-02-27T03:18:19.282Z,20.48
2017-02-27T03:19:33.680Z,20.47
2017-02-27T03:20:48.086Z,20.32
2017-02-27T03:22:01.867Z,20.24
2017-02-27T03:23:15.036Z,20.29
2017-02-27T03:24:29.418Z,20.2
2017-02-27T03:25:43.830Z,20.1
2017-02-27T03:26:58.222Z,20.14
2017-02-27T03:28:11.976Z,20.06
2017-02-27T03:29:26.400Z,20.11
2017-02-27T03:30:40.179Z,20.14
2017-02-27T03:31:54.569Z,20.13
2017-02-27T03:33:09.009Z,20.1
2017-02-27T03:34:23.425Z,20.1
2017-02-27T03:35:37.776Z,20.14
2017-02-27T03:36:51.504Z,20.1
2017-02-27T03:38:05.892Z,19.99
2017-02-27T03:39:20.291Z,20.11
2017-02-27T03:40:34.650Z,19.96
2017-02-27T03:41:49.082Z,20.02
2017-02-27T03:43:03.470Z,19.99
2017-02-27T03:44:17.203Z,20.05
2017-02-27T03:45:31.552Z,20.01
2017-02-27T03:46:45.923Z,20.01
2017-02-27T03:48:00.329Z,20.11
2017-02-27T03:49:14.958Z,20.11
2017-02-27T03:50:28.706Z,20.1
2017-02-27T03:51:43.151Z,20.13
2017-02-27T03:52:57.549Z,20.1
2017-02-27T03:54:11.944Z,20.18
2017-02-27T03:55:26.343Z,20.16
2017-02-27T03:56:40.089Z,20.14
2017-02-27T03:57:54.476Z,20.05
2017-02-27T03:59:08.892Z,20.08
2017-02-27T04:00:22.675Z,20.18
2017-02-27T04:01:37.071Z,20.14
2017-02-27T04:02:51.496Z,20.13
2017-02-27T04:04:05.909Z,20.03
2017-02-27T04:05:20.358Z,20.01
2017-02-27T04:06:34.747Z,19.99
2017-02-27T04:07:49.124Z,19.98
2017-02-27T04:09:03.521Z,19.95
2017-02-27T04:10:28.178Z,19.94
2017-02-27T04:11:42.577Z,20.05
2017-02-27T04:12:56.942Z,19.96
2017-02-27T04:14:11.331Z,19.96
2017-02-27T04:15:25.120Z,19.96
2017-02-27T04:16:39.473Z,20.05
2017-02-27T04:17:53.240Z,19.94
2017-02-27T04:19:07.608Z,19.95
2017-02-27T04:20:22.009Z,19.95
2017-02-27T04:21:36.423Z,19.99
2017-02-27T04:22:50.141Z,20.05
2017-02-27T04:24:04.550Z,20.1
2017-02-27T04:25:18.944Z,20.11
2017-02-27T04:26:33.324Z,20.1
2017-02-27T04:27:47.702Z,20.06
2017-02-27T04:29:01.431Z,20.08
2017-02-27T04:30:15.177Z,20.05
2017-02-27T04:31:29.609Z,20.1
2017-02-27T04:32:43.985Z,20.16
2017-02-27T04:33:57.757Z,20.11
2017-02-27T04:35:12.194Z,20.21
2017-02-27T04:36:26.586Z,20.16
2017-02-27T04:37:40.955Z,20.11
2017-02-27T04:38:55.314Z,20.18
2017-02-27T04:40:09.123Z,20.1
2017-02-27T04:41:22.897Z,20.11
2017-02-27T04:42:36.646Z,20.13
2017-02-27T04:43:50.442Z,20.1
2017-02-27T04:45:04.827Z,20.06
2017-02-27T04:46:19.181Z,20.1
2017-02-27T04:47:33.615Z,20.18
2017-02-27T04:48:48.010Z,20.16
2017-02-27T04:50:02.354Z,20.24
2017-02-27T04:51:16.125Z,20.08
2017-02-27T04:52:29.853Z,19.99
2017-02-27T04:53:44.280Z,20.02
2017-02-27T04:54:58.046Z,19.98
2017-02-27T04:56:12.437Z,20.01
2017-02-27T04:57:26.778Z,19.98
2017-02-27T04:58:41.175Z,20.01
2017-02-27T04:59:54.898Z,19.99
2017-02-27T05:01:09.333Z,19.99
2017-02-27T05:02:23.060Z,20.02
2017-02-27T05:03:36.820Z,19.98
2017-02-27T05:04:51.187Z,19.86
2017-02-27T05:06:05.607Z,19.84
2017-02-27T05:07:20.046Z,19.81
2017-02-27T05:08:33.796Z,19.88
2017-02-27T05:09:48.211Z,19.76
2017-02-27T05:11:02.616Z,19.81
2017-02-27T05:12:16.997Z,19.88
2017-02-27T05:13:30.796Z,19.87
2017-02-27T05:14:45.204Z,19.86
2017-02-27T05:15:59.645Z,19.74
2017-02-27T05:17:14.013Z,19.77
2017-02-27T05:18:27.777Z,19.76
2017-02-27T05:19:42.224Z,19.76
2017-02-27T05:20:56.000Z,19.71
2017-02-27T05:22:10.460Z,19.69
2017-02-27T05:23:24.880Z,19.77
2017-02-27T05:24:39.278Z,19.71
2017-02-27T05:25:53.071Z,19.73
2017-02-27T05:27:06.819Z,19.86
2017-02-27T05:28:20.618Z,19.84
2017-02-27T05:29:35.067Z,19.87
2017-02-27T05:30:49.504Z,19.84
2017-02-27T05:32:03.912Z,19.81
2017-02-27T05:33:18.292Z,19.87
2017-02-27T05:34:32.711Z,19.95
2017-02-27T05:35:47.087Z,19.99
2017-02-27T05:37:00.883Z,19.99
2017-02-27T05:38:15.267Z,20.03
2017-02-27T05:39:29.015Z,19.96
2017-02-27T05:40:43.446Z,20.01
2017-02-27T05:41:57.864Z,19.95
2017-02-27T05:43:12.266Z,20.02
2017-02-27T05:44:26.711Z,20.01
2017-02-27T05:45:41.123Z,20.03
2017-02-27T05:46:55.521Z,20.05
2017-02-27T05:48:09.969Z,20.02
2017-02-27T05:49:24.367Z,19.95
2017-02-27T05:50:38.746Z,20.05
2017-02-27T05:51:53.213Z,19.98
2017-02-27T05:53:07.618Z,20.02
2017-02-27T05:54:21.377Z,19.99
2017-02-27T05:55:33.867Z,20.01
2017-02-27T05:56:47.700Z,19.94
2017-02-27T05:58:02.118Z,20.05
2017-02-27T05:59:16.575Z,20.03
2017-02-27T06:00:30.982Z,20.01
2017-02-27T06:01:45.422Z,19.96
2017-02-27T06:02:59.863Z,19.98
2017-02-27T06:04:14.266Z,20.01
2017-02-27T06:05:28.647Z,19.95
2017-02-27T06:06:43.004Z,20.05
2017-02-27T06:07:56.766Z,20.03
2017-02-27T06:09:11.203Z,20.05
2017-02-27T06:10:25.587Z,19.95
2017-02-27T06:11:40.013Z,19.95
2017-02-27T06:12:54.419Z,19.99
2017-02-27T06:14:08.258Z,19.95
2017-02-27T06:15:22.656Z,20.01
2017-02-27T06:16:37.050Z,19.81
2017-02-27T06:17:51.448Z,19.88
2017-02-27T06:19:05.195Z,19.91
2017-02-27T06:20:19.639Z,19.92
2017-02-27T06:21:34.049Z,19.96
2017-02-27T06:22:47.912Z,19.98
2017-02-27T06:24:02.337Z,20.01
2017-02-27T06:25:16.738Z,19.98
2017-02-27T06:26:30.474Z,20.01
2017-02-27T06:27:44.906Z,19.99
2017-02-27T06:28:59.315Z,19.96
2017-02-27T06:30:13.740Z,20.01
2017-02-27T06:31:28.106Z,19.98
2017-02-27T06:32:42.564Z,19.91
2017-02-27T06:33:56.988Z,19.99
2017-02-27T06:35:11.399Z,19.88
2017-02-27T06:36:25.816Z,19.94
2017-02-27T06:37:38.924Z,19.86
2017-02-27T06:38:53.357Z,19.86
2017-02-27T06:40:07.809Z,19.88
2017-02-27T06:41:21.606Z,19.81
2017-02-27T06:42:36.031Z,19.88
2017-02-27T06:43:50.433Z,19.87
2017-02-27T06:45:04.816Z,19.87
2017-02-27T06:46:19.224Z,19.92
2017-02-27T06:47:33.688Z,19.83
2017-02-27T06:48:48.124Z,19.84
2017-02-27T06:50:01.915Z,19.86
2017-02-27T06:51:16.371Z,19.86
2017-02-27T06:52:30.827Z,19.91
2017-02-27T06:53:45.239Z,19.84
2017-02-27T06:54:59.695Z,19.8
2017-02-27T06:56:13.449Z,19.8
2017-02-27T06:57:27.837Z,19.84
2017-02-27T06:58:42.250Z,19.92
2017-02-27T06:59:56.666Z,19.8
2017-02-27T07:01:10.431Z,19.83
2017-02-27T07:02:24.228Z,19.84
2017-02-27T07:03:36.729Z,19.84
2017-02-27T07:04:51.115Z,19.88
2017-02-27T07:06:05.555Z,19.87
2017-02-27T07:07:19.336Z,19.88
2017-02-27T07:08:32.463Z,19.84
2017-02-27T07:09:46.854Z,19.74
2017-02-27T07:11:01.270Z,19.83
2017-02-27T07:12:14.405Z,19.87
2017-02-27T07:13:28.155Z,19.87
2017-02-27T07:14:41.949Z,19.78
2017-02-27T07:15:55.707Z,19.76
2017-02-27T07:17:10.124Z,19.83
2017-02-27T07:18:24.543Z,19.77
2017-02-27T07:19:38.962Z,19.77
2017-02-27T07:20:53.401Z,19.76
2017-02-27T07:22:08.064Z,19.74
2017-02-27T07:23:22.604Z,19.78
2017-02-27T07:24:36.397Z,19.77
2017-02-27T07:25:50.798Z,19.77
2017-02-27T07:27:05.177Z,19.65
2017-02-27T07:28:19.617Z,19.69
2017-02-27T07:29:34.027Z,19.71
2017-02-27T07:30:48.446Z,19.71
2017-02-27T07:32:02.173Z,19.69
2017-02-27T07:33:16.557Z,19.58
2017-02-27T07:34:30.310Z,19.59
2017-02-27T07:35:44.719Z,19.56
2017-02-27T07:36:59.111Z,19.62
2017-02-27T07:38:13.542Z,19.56
2017-02-27T07:39:27.949Z,19.48
2017-02-27T07:40:42.374Z,19.44
2017-02-27T07:41:56.765Z,19.44
2017-02-27T07:43:10.561Z,19.43
2017-02-27T07:44:25.000Z,19.39
2017-02-27T07:45:39.377Z,19.31
2017-02-27T07:46:53.779Z,19.47
2017-02-27T07:48:08.200Z,19.47
2017-02-27T07:49:22.645Z,19.44
2017-02-27T07:50:37.041Z,19.5
2017-02-27T07:51:51.453Z,19.41
2017-02-27T07:53:05.860Z,19.44
2017-02-27T07:54:20.265Z,19.47
2017-02-27T07:55:34.685Z,19.44
2017-02-27T07:56:48.431Z,19.36
2017-02-27T07:58:02.855Z,19.46
2017-02-27T07:59:17.265Z,19.31
2017-02-27T08:00:31.695Z,19.41
2017-02-27T08:01:46.113Z,19.4
2017-02-27T08:03:00.578Z,19.39
2017-02-27T08:04:14.965Z,19.32
2017-02-27T08:05:29.452Z,19.31
2017-02-27T08:06:43.896Z,19.21
2017-02-27T08:07:58.336Z,19.26
2017-02-27T08:09:12.088Z,19.25
2017-02-27T08:10:25.857Z,19.22
2017-02-27T08:11:40.221Z,19.16
2017-02-27T08:12:54.612Z,19.22
2017-02-27T08:14:08.984Z,19.25
2017-02-27T08:15:22.749Z,19.1
2017-02-27T08:16:37.212Z,19.07
2017-02-27T08:17:51.688Z,19.07
2017-02-27T08:19:06.108Z,19.14
2017-02-27T08:20:19.877Z,19
2017-02-27T08:21:33.662Z,18.95
2017-02-27T08:22:48.086Z,18.94
2017-02-27T08:24:02.510Z,18.95
2017-02-27T08:25:16.922Z,18.98
2017-02-27T08:26:31.302Z,19.11
2017-02-27T08:27:45.716Z,19.04
2017-02-27T08:29:00.133Z,19.04
2017-02-27T08:30:13.920Z,18.95
2017-02-27T08:31:28.345Z,19.02
2017-02-27T08:32:42.095Z,19.08
2017-02-27T08:33:56.514Z,19.08
2017-02-27T08:35:10.314Z,19.08
2017-02-27T08:36:24.729Z,18.99
2017-02-27T08:37:39.087Z,19.08
2017-02-27T08:38:52.813Z,19.04
2017-02-27T08:40:06.589Z,18.95
2017-02-27T08:41:20.359Z,19.04
2017-02-27T08:42:34.778Z,19
2017-02-27T08:43:49.188Z,18.95
2017-02-27T08:45:03.585Z,19.06
2017-02-27T08:46:17.356Z,18.91
2017-02-27T08:47:31.781Z,18.92
2017-02-27T08:48:46.220Z,18.98
2017-02-27T08:50:00.643Z,18.9
2017-02-27T08:51:15.030Z,18.84
2017-02-27T08:52:29.401Z,18.91
2017-02-27T08:53:43.814Z,18.85
2017-02-27T08:54:58.205Z,18.87
2017-02-27T08:56:12.597Z,18.85
2017-02-27T08:57:26.998Z,18.88
2017-02-27T08:58:41.424Z,18.87
2017-02-27T08:59:55.178Z,18.91
2017-02-27T09:01:08.305Z,18.87
2017-02-27T09:02:22.074Z,18.75
2017-02-27T09:03:35.822Z,18.87
2017-02-27T09:04:49.593Z,18.82
2017-02-27T09:06:04.056Z,18.8
2017-02-27T09:07:18.466Z,18.87
2017-02-27T09:08:32.849Z,18.91
2017-02-27T09:09:47.286Z,18.92
2017-02-27T09:11:01.040Z,19
2017-02-27T09:12:14.821Z,18.92
2017-02-27T09:13:29.255Z,18.9
2017-02-27T09:14:43.653Z,19
2017-02-27T09:15:58.038Z,18.91
2017-02-27T09:17:12.425Z,19.07
2017-02-27T09:18:26.830Z,18.99
2017-02-27T09:19:41.239Z,19.13
2017-02-27T09:20:55.651Z,19.11
2017-02-27T09:22:08.740Z,19.08
2017-02-27T09:23:23.162Z,19.19
2017-02-27T09:24:37.544Z,19.31
2017-02-27T09:25:51.907Z,19.58
2017-02-27T09:27:05.622Z,19.81
2017-02-27T09:28:20.021Z,19.98
2017-02-27T09:29:34.423Z,20.26
2017-02-27T09:30:48.873Z,20.43
2017-02-27T09:32:03.253Z,20.57
2017-02-27T09:33:17.016Z,20.64
2017-02-27T09:34:31.399Z,20.74
2017-02-27T09:35:45.778Z,20.8
2017-02-27T09:37:00.227Z,21.04
2017-02-27T09:38:14.615Z,21.22
2017-02-27T09:39:29.009Z,21.24
2017-02-27T09:40:43.434Z,21.35
2017-02-27T09:41:57.227Z,21.59
2017-02-27T09:43:10.968Z,21.75
2017-02-27T09:44:25.328Z,21.91
2017-02-27T09:45:39.049Z,22.14
2017-02-27T09:46:53.452Z,22.35
2017-02-27T09:48:07.847Z,22.52
2017-02-27T09:49:22.249Z,22.77
2017-02-27T09:50:36.056Z,23.02
2017-02-27T09:51:49.199Z,23.31
2017-02-27T09:53:03.620Z,23.72
2017-02-27T09:54:18.053Z,23.97
2017-02-27T09:55:32.467Z,24.31
2017-02-27T09:56:47.333Z,24.47
2017-02-27T09:58:01.758Z,24.22
2017-02-27T09:59:16.138Z,24.15
2017-02-27T10:00:30.552Z,23.72
2017-02-27T10:01:44.916Z,23.43
2017-02-27T10:02:59.336Z,23.32
2017-02-27T10:04:13.683Z,23.35
2017-02-27T10:05:28.072Z,23.54
2017-02-27T10:06:42.469Z,23.69
2017-02-27T10:07:56.891Z,23.87
2017-02-27T10:09:11.297Z,24
2017-02-27T10:10:25.686Z,23.91
2017-02-27T10:11:39.442Z,23.83
2017-02-27T10:12:53.828Z,23.58
2017-02-27T10:14:08.275Z,23.42
2017-02-27T10:15:22.737Z,23.61
2017-02-27T10:16:35.858Z,23.98
2017-02-27T10:17:50.209Z,24.16
2017-02-27T10:19:04.583Z,24.47
2017-02-27T10:20:18.971Z,24.85
2017-02-27T10:21:33.424Z,24.99
2017-02-27T10:22:47.832Z,25
2017-02-27T10:24:02.211Z,25.03
2017-02-27T10:25:16.603Z,25.17
2017-02-27T10:26:31.001Z,25.43
2017-02-27T10:27:45.373Z,25.62
2017-02-27T10:28:59.741Z,25.61
2017-02-27T10:30:14.128Z,25.36
2017-02-27T10:31:28.545Z,25.32
2017-02-27T10:32:42.948Z,25.15
2017-02-27T10:33:57.353Z,24.99
2017-02-27T10:35:11.785Z,24.88
2017-02-27T10:36:26.224Z,24.64
2017-02-27T10:37:40.623Z,24.6
2017-02-27T10:38:54.987Z,24.99
2017-02-27T10:40:09.427Z,25.25
2017-02-27T10:41:23.888Z,25.36
2017-02-27T10:42:38.305Z,25.58
2017-02-27T10:43:52.710Z,25.45
2017-02-27T10:45:07.101Z,25.36
2017-02-27T10:46:21.496Z,25.27
2017-02-27T10:47:35.558Z,25.02
2017-02-27T10:48:49.977Z,24.87
2017-02-27T10:50:04.383Z,25.02
2017-02-27T10:51:18.797Z,24.99
2017-02-27T10:52:33.178Z,24.83
2017-02-27T10:53:47.593Z,24.93
2017-02-27T10:55:01.993Z,25.02
2017-02-27T10:56:15.744Z,24.91
2017-02-27T10:57:29.522Z,24.83
2017-02-27T10:58:43.261Z,24.84
2017-02-27T10:59:57.654Z,24.77
2017-02-27T11:01:12.047Z,24.84
2017-02-27T11:02:26.463Z,24.96
2017-02-27T11:03:40.198Z,25.15
2017-02-27T11:04:54.618Z,25.38
2017-02-27T11:06:09.012Z,25.64
2017-02-27T11:07:22.785Z,25.69
2017-02-27T11:08:37.184Z,25.83
2017-02-27T11:09:51.576Z,25.61
2017-02-27T11:11:05.993Z,25.39
2017-02-27T11:12:20.500Z,25.79
2017-02-27T11:13:34.907Z,25.6
2017-02-27T11:14:48.673Z,25.57
2017-02-27T11:16:03.049Z,25.33
2017-02-27T11:17:16.817Z,25.05
2017-02-27T11:18:31.226Z,24.49
2017-02-27T11:19:45.756Z,24.13
2017-02-27T11:21:00.177Z,23.9
2017-02-27T11:22:14.593Z,23.84
2017-02-27T11:23:29.001Z,24.03
2017-02-27T11:24:43.408Z,24.5
2017-02-27T11:25:57.832Z,24.53
2017-02-27T11:27:10.967Z,25.05
2017-02-27T11:28:25.339Z,25.05
2017-02-27T11:29:39.760Z,25.2
2017-02-27T11:30:54.150Z,24.77
2017-02-27T11:32:08.607Z,25.14
2017-02-27T11:33:23.064Z,25.15
2017-02-27T11:34:37.469Z,25.47
2017-02-27T11:35:51.851Z,25.28
2017-02-27T11:37:06.211Z,25.25
2017-02-27T11:38:20.577Z,24.91
2017-02-27T11:39:34.986Z,25.25
2017-02-27T11:40:49.378Z,25.14
2017-02-27T11:42:03.769Z,25.3
2017-02-27T11:43:18.155Z,25.42
2017-02-27T11:44:31.930Z,25.17
2017-02-27T11:45:46.374Z,25.32
2017-02-27T11:47:00.801Z,25.03
2017-02-27T11:48:15.195Z,24.58
2017-02-27T11:49:28.964Z,24.25
2017-02-27T11:50:43.376Z,24.57
2017-02-27T11:51:57.797Z,24.6
2017-02-27T11:53:12.187Z,24.47
2017-02-27T11:54:25.980Z,24.61
2017-02-27T11:55:39.744Z,24.5
2017-02-27T11:56:54.123Z,24.4
2017-02-27T11:58:07.916Z,24.43
2017-02-27T11:59:22.324Z,24.64
2017-02-27T12:00:36.111Z,25.21
2017-02-27T12:01:50.518Z,25.15
2017-02-27T12:03:04.950Z,24.96
2017-02-27T12:04:19.366Z,24.88
2017-02-27T12:05:33.754Z,25
2017-02-27T12:06:47.591Z,25.15
2017-02-27T12:08:02.001Z,25.39
2017-02-27T12:09:15.724Z,25.64
2017-02-27T12:10:29.470Z,26.09
2017-02-27T12:11:43.238Z,26.12
2017-02-27T12:12:57.609Z,26.13
2017-02-27T12:14:12.019Z,25.82
2017-02-27T12:15:26.434Z,25.33
2017-02-27T12:16:40.832Z,25.02
2017-02-27T12:17:54.587Z,25.23
2017-02-27T12:19:09.001Z,25.47
2017-02-27T12:20:23.384Z,25.5
2017-02-27T12:21:37.795Z,25.46
2017-02-27T12:22:51.589Z,25.06
2017-02-27T12:24:05.984Z,25.23
2017-02-27T12:25:19.767Z,25.36
2017-02-27T12:26:33.538Z,25.42
2017-02-27T12:27:47.305Z,25.45
2017-02-27T12:29:01.701Z,25.64
2017-02-27T12:30:16.212Z,25.7
2017-02-27T12:31:29.935Z,26.18
2017-02-27T12:32:43.696Z,26.55
2017-02-27T12:33:58.091Z,26.63
2017-02-27T12:35:12.505Z,26.65
2017-02-27T12:36:26.928Z,26.45
2017-02-27T12:37:40.699Z,26.32
2017-02-27T12:38:55.100Z,26.32
2017-02-27T12:40:08.856Z,26.29
2017-02-27T12:41:22.616Z,26.58
2017-02-27T12:42:37.016Z,26.76
2017-02-27T12:43:50.812Z,27.27
2017-02-27T12:45:05.203Z,27.66
2017-02-27T12:46:19.610Z,27.5
2017-02-27T12:47:33.350Z,27.32
2017-02-27T12:48:47.782Z,26.91
2017-02-27T12:50:02.166Z,26.29
2017-02-27T12:51:15.908Z,26.02
2017-02-27T12:52:29.046Z,26.25
2017-02-27T12:53:42.160Z,26.29
2017-02-27T12:54:55.945Z,26.87
2017-02-27T12:56:09.728Z,27.07
2017-02-27T12:57:24.163Z,26.92
2017-02-27T12:58:37.963Z,26.6
2017-02-27T12:59:51.723Z,26.4
2017-02-27T13:01:06.135Z,26.05
2017-02-27T13:02:19.910Z,25.64
2017-02-27T13:03:34.298Z,25.28
2017-02-27T13:04:48.066Z,25.4
2017-02-27T13:06:02.437Z,25.39
2017-02-27T13:07:16.851Z,25.42
2017-02-27T13:08:31.248Z,25.13
2017-02-27T13:09:45.655Z,25.08
2017-02-27T13:10:59.161Z,25.58
2017-02-27T13:12:38.324Z,25.85
2017-02-27T13:13:52.045Z,25.69
2017-02-27T13:15:05.802Z,26.13
2017-02-27T13:16:20.243Z,26.39
2017-02-27T13:17:34.654Z,26.51
2017-02-27T13:18:49.067Z,26.55
2017-02-27T13:20:03.486Z,26.48
2017-02-27T13:21:17.882Z,26.29
2017-02-27T13:22:31.641Z,25.72
2017-02-27T13:23:46.060Z,25.72
2017-02-27T13:24:59.227Z,26.01
2017-02-27T13:26:13.645Z,25.87
2017-02-27T13:27:28.088Z,25.64
2017-02-27T13:28:42.567Z,25.67
2017-02-27T13:29:56.318Z,26.09
2017-02-27T13:31:10.772Z,26.45
2017-02-27T13:32:23.884Z,26.85
2017-02-27T13:33:38.337Z,27.04
2017-02-27T13:34:52.115Z,27.19
2017-02-27T13:36:06.562Z,26.91
2017-02-27T13:37:20.961Z,26.25
2017-02-27T13:38:35.331Z,25.75
2017-02-27T13:39:49.709Z,25.36
2017-02-27T13:41:04.130Z,25.08
2017-02-27T13:42:17.901Z,24.98
2017-02-27T13:43:31.009Z,24.85
2017-02-27T13:44:45.451Z,24.73
2017-02-27T13:45:59.857Z,24.76
2017-02-27T13:47:13.616Z,24.71
2017-02-27T13:48:27.344Z,24.71
2017-02-27T13:49:41.141Z,24.99
2017-02-27T13:50:55.573Z,25.51
2017-02-27T13:52:09.950Z,26.17
2017-02-27T13:53:24.333Z,26.76
2017-02-27T13:54:38.123Z,27.47
2017-02-27T13:55:52.505Z,27.96
2017-02-27T13:57:06.915Z,28.22
2017-02-27T13:58:21.295Z,28.44
2017-02-27T13:59:35.744Z,28.73
2017-02-27T14:00:50.150Z,29.05
2017-02-27T14:02:04.577Z,29.11
2017-02-27T14:03:18.974Z,29.31
2017-02-27T14:04:33.372Z,29.18
2017-02-27T14:05:47.775Z,28.9
2017-02-27T14:07:02.181Z,28.36
2017-02-27T14:08:15.956Z,28.06
2017-02-27T14:09:29.732Z,27.65
2017-02-27T14:10:44.153Z,27.37
2017-02-27T14:11:58.537Z,26.94
2017-02-27T14:13:12.996Z,27.03
2017-02-27T14:14:27.429Z,27.41
2017-02-27T14:15:41.843Z,27.9
2017-02-27T14:16:55.586Z,27.97
2017-02-27T14:18:10.001Z,27.78
2017-02-27T14:19:24.374Z,27.87
2017-02-27T14:20:38.130Z,27.55
2017-02-27T14:21:52.550Z,27.25
2017-02-27T14:23:06.940Z,26.81
2017-02-27T14:24:21.344Z,26.67
2017-02-27T14:25:35.764Z,26.3
2017-02-27T14:26:50.214Z,26.54
2017-02-27T14:28:04.635Z,27.09
2017-02-27T14:29:19.090Z,27.46
2017-02-27T14:30:33.520Z,27.97
2017-02-27T14:31:47.960Z,27.54
2017-02-27T14:33:01.737Z,27.12
2017-02-27T14:34:16.144Z,26.84
2017-02-27T14:35:30.557Z,26.89
2017-02-27T14:36:44.939Z,26.76
2017-02-27T14:37:59.328Z,26.84
2017-02-27T14:39:13.737Z,27.34
2017-02-27T14:40:27.539Z,27.87
2017-02-27T14:41:41.326Z,28.54
2017-02-27T14:42:55.798Z,28.92
2017-02-27T14:44:10.230Z,28.54
2017-02-27T14:45:24.695Z,28.15
2017-02-27T14:46:39.157Z,27.9
2017-02-27T14:47:53.639Z,27.74
2017-02-27T14:49:08.131Z,27.84
2017-02-27T14:50:22.614Z,27.79
2017-02-27T14:51:37.060Z,27.55
2017-02-27T14:52:51.518Z,27.44
2017-02-27T14:54:05.980Z,27.22
2017-02-27T14:55:20.438Z,27.4
2017-02-27T14:56:34.942Z,27.67
2017-02-27T14:57:49.395Z,27.6
2017-02-27T14:59:03.222Z,27.47
2017-02-27T15:00:17.713Z,27.29
2017-02-27T15:01:31.546Z,27.09
2017-02-27T15:02:46.014Z,27.07
2017-02-27T15:04:00.498Z,27.12
2017-02-27T15:05:14.308Z,27.22
2017-02-27T15:06:28.117Z,27.44
2017-02-27T15:07:42.578Z,28.39
2017-02-27T15:08:57.028Z,29.09
2017-02-27T15:10:10.845Z,29.7
2017-02-27T15:11:25.327Z,29.78
2017-02-27T15:12:39.816Z,30.08
2017-02-27T15:13:54.286Z,29.67
2017-02-27T15:15:08.770Z,28.21
2017-02-27T15:16:23.208Z,27.43
2017-02-27T15:17:37.010Z,27.07
2017-02-27T15:18:51.477Z,27.14
2017-02-27T15:20:05.313Z,27.39
2017-02-27T15:21:19.781Z,28.03
2017-02-27T15:22:33.595Z,28.71
2017-02-27T15:23:48.071Z,28.73
2017-02-27T15:25:02.539Z,29.16
2017-02-27T15:26:16.992Z,30.15
2017-02-27T15:27:31.460Z,30.45
2017-02-27T15:28:45.937Z,29.79
2017-02-27T15:29:59.780Z,29.58
2017-02-27T15:31:13.608Z,29.53
2017-02-27T15:32:28.097Z,29.09
2017-02-27T15:33:42.513Z,28.74
2017-02-27T15:34:56.992Z,28.34
2017-02-27T15:36:11.506Z,27.94
2017-02-27T15:37:25.978Z,27.65
2017-02-27T15:38:40.434Z,27.32
2017-02-27T15:39:54.910Z,27.19
2017-02-27T15:41:08.737Z,27.22
2017-02-27T15:42:23.261Z,27.25
2017-02-27T15:43:37.706Z,27.79
2017-02-27T15:44:52.187Z,28.34
2017-02-27T15:46:06.684Z,28.83
2017-02-27T15:47:20.519Z,29.11
2017-02-27T15:48:34.669Z,29.82
2017-02-27T15:49:48.483Z,30.43
2017-02-27T15:51:02.286Z,31.04
2017-02-27T15:52:16.070Z,31.96
2017-02-27T15:53:29.858Z,31.96
2017-02-27T15:54:43.059Z,31.09
2017-02-27T15:55:56.261Z,30.26
2017-02-27T15:57:10.395Z,29.67
2017-02-27T15:58:24.831Z,29.51
2017-02-27T15:59:39.274Z,29.26
2017-02-27T16:00:53.078Z,28.95
2017-02-27T16:02:06.921Z,28.7
2017-02-27T16:03:21.415Z,28.77
2017-02-27T16:04:35.943Z,29
2017-02-27T16:05:49.770Z,28.86
2017-02-27T16:07:04.244Z,28.81
2017-02-27T16:08:18.734Z,29.15
2017-02-27T16:09:33.192Z,29.34
2017-02-27T16:10:47.025Z,29.51
2017-02-27T16:12:04.182Z,29.78
2017-02-27T16:13:18.002Z,29.95
2017-02-27T16:14:31.794Z,30.04
2017-02-27T16:15:45.584Z,29.65